BAW771C ESSA-EGLL
Flight info
| Callsign | BAW771C |
|---|---|
| Flight time | 2h 17m |
| Altitude | 38000 |
| Route | ARS N623 BEDLA N866 LAPSI DCT UPGAS DCT TIPAN DCT WECOW DCT BINBO DCT AKOKO N866 BUKUT P7 BARMI |
| Aircraft | A20N/M-SDGHIJ1LRWXY/SB1 |
Departure
| Time | 2026-05-08 05:55 |
|---|---|
| Airport | Stockholm-Arlanda Airport (ESSA) |
Arrival
| Time | 2026-05-08 08:12 |
|---|---|
| Airport | London Heathrow Airport (EGLL) |
| Time | Latitude | Longitude | Altitude | Speed | Heading |
|---|---|---|---|---|---|
| 2026-05-08 05:08 | 59.65136 | 17.92541 | 117 ft | 0 kts | 128° |
| 2026-05-08 05:46 | 59.65142 | 17.92525 | 113 ft | 2 kts | 120° |
| 2026-05-08 05:46 | 59.65144 | 17.92503 | 113 ft | 2 kts | 34° |
| 2026-05-08 05:46 | 59.65134 | 17.92492 | 115 ft | 2 kts | 31° |
| 2026-05-08 05:46 | 59.65124 | 17.92480 | 113 ft | 2 kts | 31° |
| 2026-05-08 05:47 | 59.65119 | 17.92474 | 113 ft | 0 kts | 31° |
| 2026-05-08 05:50 | 59.65123 | 17.92479 | 112 ft | 3 kts | 31° |
| 2026-05-08 05:50 | 59.65148 | 17.92501 | 112 ft | 9 kts | 21° |
| 2026-05-08 05:50 | 59.65238 | 17.92530 | 113 ft | 16 kts | 10° |
| 2026-05-08 05:51 | 59.65284 | 17.92435 | 117 ft | 11 kts | 291° |
| 2026-05-08 05:51 | 59.65322 | 17.92287 | 114 ft | 13 kts | 321° |
| 2026-05-08 05:51 | 59.65414 | 17.92293 | 119 ft | 14 kts | 9° |
| 2026-05-08 05:51 | 59.65520 | 17.92331 | 117 ft | 17 kts | 10° |
| 2026-05-08 05:52 | 59.65645 | 17.92377 | 116 ft | 19 kts | 11° |
| 2026-05-08 05:52 | 59.65785 | 17.92428 | 121 ft | 21 kts | 10° |
| 2026-05-08 05:52 | 59.65938 | 17.92483 | 122 ft | 23 kts | 12° |
| 2026-05-08 05:52 | 59.66102 | 17.92544 | 123 ft | 25 kts | 10° |
| 2026-05-08 05:53 | 59.66262 | 17.92600 | 123 ft | 22 kts | 11° |
| 2026-05-08 05:53 | 59.66413 | 17.92656 | 124 ft | 19 kts | 8° |
| 2026-05-08 05:53 | 59.66515 | 17.92620 | 124 ft | 15 kts | 343° |
| 2026-05-08 05:53 | 59.66609 | 17.92532 | 125 ft | 15 kts | 306° |
| 2026-05-08 05:54 | 59.66589 | 17.92360 | 124 ft | 14 kts | 206° |
| 2026-05-08 05:54 | 59.66484 | 17.92326 | 122 ft | 18 kts | 190° |
| 2026-05-08 05:54 | 59.66191 | 17.92218 | 122 ft | 77 kts | 190° |
| 2026-05-08 05:54 | 59.65458 | 17.91946 | 118 ft | 134 kts | 190° |
| 2026-05-08 05:55 | 59.64460 | 17.91568 | 536 ft | 142 kts | 189° |
| 2026-05-08 05:55 | 59.63496 | 17.91176 | 1132 ft | 145 kts | 188° |
| 2026-05-08 05:55 | 59.62471 | 17.90804 | 1650 ft | 157 kts | 188° |
| 2026-05-08 05:55 | 59.61347 | 17.90389 | 2318 ft | 171 kts | 189° |
| 2026-05-08 05:56 | 59.60113 | 17.89835 | 2898 ft | 193 kts | 202° |
| 2026-05-08 05:56 | 59.59027 | 17.88096 | 3526 ft | 215 kts | 236° |
| 2026-05-08 05:56 | 59.58568 | 17.85206 | 4331 ft | 228 kts | 264° |
| 2026-05-08 05:56 | 59.58442 | 17.82063 | 5394 ft | 231 kts | 259° |
| 2026-05-08 05:57 | 59.57966 | 17.79075 | 6346 ft | 235 kts | 245° |
| 2026-05-08 05:57 | 59.57249 | 17.76055 | 6995 ft | 256 kts | 248° |
| 2026-05-08 05:57 | 59.56787 | 17.72526 | 7648 ft | 271 kts | 265° |
| 2026-05-08 05:57 | 59.56806 | 17.68792 | 8654 ft | 273 kts | 274° |
| 2026-05-08 05:58 | 59.56903 | 17.65045 | 9722 ft | 276 kts | 273° |
| 2026-05-08 05:58 | 59.56988 | 17.61232 | 10667 ft | 282 kts | 273° |
| 2026-05-08 05:58 | 59.57070 | 17.57232 | 11131 ft | 303 kts | 273° |
| 2026-05-08 05:58 | 59.57157 | 17.52921 | 11517 ft | 325 kts | 272° |
| 2026-05-08 05:59 | 59.57246 | 17.48417 | 12291 ft | 331 kts | 272° |
| 2026-05-08 05:59 | 59.57334 | 17.43854 | 13215 ft | 335 kts | 272° |
| 2026-05-08 05:59 | 59.57421 | 17.39232 | 14116 ft | 338 kts | 272° |
| 2026-05-08 05:59 | 59.57509 | 17.34570 | 14917 ft | 342 kts | 272° |
| 2026-05-08 06:00 | 59.57596 | 17.29866 | 15714 ft | 345 kts | 272° |
| 2026-05-08 06:00 | 59.57680 | 17.25175 | 16494 ft | 348 kts | 273° |
| 2026-05-08 06:00 | 59.57766 | 17.20377 | 17269 ft | 351 kts | 273° |
| 2026-05-08 06:00 | 59.57849 | 17.15629 | 18028 ft | 355 kts | 273° |
| 2026-05-08 06:01 | 59.57932 | 17.10722 | 18760 ft | 358 kts | 273° |
| 2026-05-08 06:01 | 59.58015 | 17.05804 | 19409 ft | 362 kts | 273° |
| 2026-05-08 06:01 | 59.58097 | 17.00825 | 20042 ft | 365 kts | 273° |
| 2026-05-08 06:01 | 59.58178 | 16.95769 | 20678 ft | 369 kts | 273° |
| 2026-05-08 06:02 | 59.58257 | 16.90688 | 21301 ft | 373 kts | 272° |
| 2026-05-08 06:02 | 59.58335 | 16.85548 | 21924 ft | 376 kts | 272° |
| 2026-05-08 06:02 | 59.58412 | 16.80350 | 22547 ft | 380 kts | 272° |
| 2026-05-08 06:02 | 59.58487 | 16.75110 | 23156 ft | 384 kts | 272° |
| 2026-05-08 06:03 | 59.58561 | 16.69821 | 23760 ft | 388 kts | 272° |
| 2026-05-08 06:03 | 59.58724 | 16.64490 | 24279 ft | 390 kts | 278° |
| 2026-05-08 06:03 | 59.59205 | 16.59210 | 24837 ft | 392 kts | 282° |
| 2026-05-08 06:03 | 59.59751 | 16.53921 | 25370 ft | 394 kts | 281° |
| 2026-05-08 06:04 | 59.60292 | 16.48610 | 25886 ft | 396 kts | 281° |
| 2026-05-08 06:04 | 59.60830 | 16.43276 | 26392 ft | 398 kts | 281° |
| 2026-05-08 06:04 | 59.61370 | 16.37878 | 26885 ft | 401 kts | 281° |
| 2026-05-08 06:04 | 59.61906 | 16.32467 | 27371 ft | 403 kts | 280° |
| 2026-05-08 06:05 | 59.62110 | 16.26946 | 27828 ft | 405 kts | 267° |
| 2026-05-08 06:05 | 59.61669 | 16.21440 | 28271 ft | 408 kts | 255° |
| 2026-05-08 06:05 | 59.60589 | 16.16215 | 28696 ft | 413 kts | 242° |
| 2026-05-08 06:05 | 59.58993 | 16.11480 | 29104 ft | 417 kts | 237° |
| 2026-05-08 06:06 | 59.57313 | 16.06786 | 29497 ft | 419 kts | 237° |
| 2026-05-08 06:06 | 59.55629 | 16.02075 | 29897 ft | 422 kts | 237° |
| 2026-05-08 06:06 | 59.53956 | 15.97393 | 30274 ft | 424 kts | 237° |
| 2026-05-08 06:06 | 59.52254 | 15.92638 | 30619 ft | 426 kts | 237° |
| 2026-05-08 06:07 | 59.50539 | 15.87858 | 30941 ft | 429 kts | 237° |
| 2026-05-08 06:07 | 59.48806 | 15.83045 | 31256 ft | 431 kts | 236° |
| 2026-05-08 06:07 | 59.47070 | 15.78231 | 31618 ft | 432 kts | 236° |
| 2026-05-08 06:07 | 59.45334 | 15.73426 | 32035 ft | 432 kts | 236° |
| 2026-05-08 06:08 | 59.43588 | 15.68608 | 32475 ft | 431 kts | 236° |
| 2026-05-08 06:08 | 59.41848 | 15.63813 | 32893 ft | 430 kts | 236° |
| 2026-05-08 06:08 | 59.40110 | 15.59031 | 33305 ft | 430 kts | 236° |
| 2026-05-08 06:08 | 59.38373 | 15.54264 | 33699 ft | 429 kts | 236° |
| 2026-05-08 06:09 | 59.36636 | 15.49505 | 34106 ft | 428 kts | 236° |
| 2026-05-08 06:09 | 59.34900 | 15.44761 | 34438 ft | 428 kts | 236° |
| 2026-05-08 06:09 | 59.33161 | 15.40016 | 34741 ft | 428 kts | 235° |
| 2026-05-08 06:09 | 59.31448 | 15.35349 | 35029 ft | 428 kts | 235° |
| 2026-05-08 06:10 | 59.29702 | 15.30604 | 35311 ft | 428 kts | 235° |
| 2026-05-08 06:10 | 59.27961 | 15.25880 | 35587 ft | 428 kts | 235° |
| 2026-05-08 06:10 | 59.26215 | 15.21156 | 35861 ft | 428 kts | 235° |
| 2026-05-08 06:10 | 59.24471 | 15.16444 | 36136 ft | 428 kts | 235° |
| 2026-05-08 06:11 | 59.22725 | 15.11736 | 36406 ft | 428 kts | 235° |
| 2026-05-08 06:11 | 59.20976 | 15.07030 | 36651 ft | 428 kts | 234° |
| 2026-05-08 06:11 | 59.19224 | 15.02327 | 36899 ft | 428 kts | 234° |
| 2026-05-08 06:11 | 59.17472 | 14.97629 | 37136 ft | 428 kts | 234° |
| 2026-05-08 06:12 | 59.15719 | 14.92942 | 37381 ft | 428 kts | 234° |
| 2026-05-08 06:12 | 59.13962 | 14.88253 | 37638 ft | 428 kts | 234° |
| 2026-05-08 06:12 | 59.12202 | 14.83565 | 37861 ft | 428 kts | 234° |
| 2026-05-08 06:12 | 59.10447 | 14.78898 | 38082 ft | 428 kts | 234° |
| 2026-05-08 06:13 | 59.08683 | 14.74219 | 38276 ft | 428 kts | 234° |
| 2026-05-08 06:13 | 59.05188 | 14.64973 | 38297 ft | 427 kts | 234° |
| 2026-05-08 06:14 | 59.01663 | 14.55684 | 38291 ft | 427 kts | 234° |
| 2026-05-08 06:14 | 58.98129 | 14.46410 | 38295 ft | 427 kts | 234° |
| 2026-05-08 06:15 | 58.94590 | 14.37157 | 38301 ft | 428 kts | 234° |
| 2026-05-08 06:15 | 58.91130 | 14.27778 | 38283 ft | 428 kts | 238° |
| 2026-05-08 06:16 | 58.87956 | 14.18026 | 38289 ft | 428 kts | 238° |
| 2026-05-08 06:16 | 58.84782 | 14.08266 | 38279 ft | 429 kts | 238° |
| 2026-05-08 06:17 | 58.80010 | 13.93636 | 38292 ft | 429 kts | 238° |
| 2026-05-08 06:17 | 58.76839 | 13.83961 | 38284 ft | 430 kts | 238° |
| 2026-05-08 06:18 | 58.73634 | 13.74225 | 38282 ft | 430 kts | 237° |
| 2026-05-08 06:18 | 58.70420 | 13.64518 | 38278 ft | 430 kts | 237° |
| 2026-05-08 06:19 | 58.67196 | 13.54832 | 38274 ft | 430 kts | 237° |
| 2026-05-08 06:19 | 58.63981 | 13.45214 | 38271 ft | 430 kts | 237° |
| 2026-05-08 06:20 | 58.60719 | 13.35498 | 38269 ft | 430 kts | 237° |
| 2026-05-08 06:20 | 58.57490 | 13.25915 | 38271 ft | 430 kts | 237° |
| 2026-05-08 06:21 | 58.54233 | 13.16291 | 38278 ft | 430 kts | 237° |
| 2026-05-08 06:21 | 58.50968 | 13.06682 | 38274 ft | 431 kts | 237° |
| 2026-05-08 06:22 | 58.47690 | 12.97079 | 38261 ft | 431 kts | 237° |
| 2026-05-08 06:22 | 58.44410 | 12.87500 | 38276 ft | 431 kts | 237° |
| 2026-05-08 06:23 | 58.41118 | 12.77927 | 38267 ft | 431 kts | 236° |
| 2026-05-08 06:23 | 58.37816 | 12.68367 | 38268 ft | 431 kts | 236° |
| 2026-05-08 06:24 | 58.34531 | 12.58893 | 38266 ft | 431 kts | 236° |
| 2026-05-08 06:24 | 58.31218 | 12.49376 | 38258 ft | 431 kts | 236° |
| 2026-05-08 06:25 | 58.27901 | 12.39887 | 38263 ft | 431 kts | 236° |
| 2026-05-08 06:25 | 58.24570 | 12.30394 | 38263 ft | 431 kts | 236° |
| 2026-05-08 06:26 | 58.21236 | 12.20930 | 38262 ft | 432 kts | 236° |
| 2026-05-08 06:26 | 58.17885 | 12.11456 | 38255 ft | 432 kts | 236° |
| 2026-05-08 06:27 | 58.14533 | 12.02017 | 38263 ft | 432 kts | 236° |
| 2026-05-08 06:27 | 58.11167 | 11.92575 | 38265 ft | 432 kts | 235° |
| 2026-05-08 06:28 | 58.07812 | 11.83204 | 38254 ft | 433 kts | 235° |
| 2026-05-08 06:28 | 58.04431 | 11.73794 | 38272 ft | 433 kts | 235° |
| 2026-05-08 06:29 | 58.01040 | 11.64396 | 38258 ft | 433 kts | 235° |
| 2026-05-08 06:29 | 57.97639 | 11.55005 | 38266 ft | 433 kts | 235° |
| 2026-05-08 06:30 | 57.94232 | 11.45635 | 38256 ft | 433 kts | 235° |
| 2026-05-08 06:30 | 57.90822 | 11.36295 | 38248 ft | 433 kts | 235° |
| 2026-05-08 06:31 | 57.87407 | 11.26977 | 38247 ft | 433 kts | 234° |
| 2026-05-08 06:31 | 57.83986 | 11.17679 | 38256 ft | 433 kts | 234° |
| 2026-05-08 06:32 | 57.80559 | 11.08402 | 38236 ft | 433 kts | 234° |
| 2026-05-08 06:32 | 57.77125 | 10.99140 | 38242 ft | 433 kts | 234° |
| 2026-05-08 06:33 | 57.73688 | 10.89904 | 38246 ft | 433 kts | 234° |
| 2026-05-08 06:33 | 57.70258 | 10.80725 | 38237 ft | 433 kts | 234° |
| 2026-05-08 06:34 | 57.66797 | 10.71497 | 38241 ft | 433 kts | 234° |
| 2026-05-08 06:34 | 57.63333 | 10.62297 | 38249 ft | 433 kts | 234° |
| 2026-05-08 06:35 | 57.59858 | 10.53104 | 38246 ft | 433 kts | 234° |
| 2026-05-08 06:35 | 57.56382 | 10.43944 | 38235 ft | 433 kts | 234° |
| 2026-05-08 06:36 | 57.52891 | 10.34776 | 38242 ft | 434 kts | 233° |
| 2026-05-08 06:36 | 57.49394 | 10.25632 | 38247 ft | 434 kts | 233° |
| 2026-05-08 06:37 | 57.45884 | 10.16486 | 38249 ft | 434 kts | 233° |
| 2026-05-08 06:37 | 57.42392 | 10.07421 | 38243 ft | 434 kts | 233° |
| 2026-05-08 06:38 | 57.38868 | 9.98308 | 38249 ft | 434 kts | 233° |
| 2026-05-08 06:38 | 57.35911 | 9.90686 | 38232 ft | 434 kts | 233° |
| 2026-05-08 06:39 | 57.32401 | 9.81672 | 38248 ft | 434 kts | 233° |
| 2026-05-08 06:39 | 57.28857 | 9.72605 | 38235 ft | 434 kts | 233° |
| 2026-05-08 06:40 | 57.25312 | 9.63570 | 38242 ft | 434 kts | 233° |
| 2026-05-08 06:40 | 57.21764 | 9.54560 | 38228 ft | 434 kts | 233° |
| 2026-05-08 06:41 | 57.18207 | 9.45561 | 38240 ft | 434 kts | 233° |
| 2026-05-08 06:41 | 57.14645 | 9.36584 | 38232 ft | 434 kts | 232° |
| 2026-05-08 06:42 | 57.11079 | 9.27630 | 38237 ft | 434 kts | 232° |
| 2026-05-08 06:42 | 57.07502 | 9.18681 | 38227 ft | 433 kts | 232° |
| 2026-05-08 06:43 | 57.03927 | 9.09769 | 38226 ft | 433 kts | 232° |
| 2026-05-08 06:43 | 57.00343 | 9.00869 | 38221 ft | 433 kts | 232° |
| 2026-05-08 06:44 | 56.96778 | 8.92048 | 38224 ft | 433 kts | 232° |
| 2026-05-08 06:44 | 56.93189 | 8.83202 | 38224 ft | 433 kts | 232° |
| 2026-05-08 06:45 | 56.89594 | 8.74371 | 38224 ft | 433 kts | 232° |
| 2026-05-08 06:45 | 56.85987 | 8.65544 | 38217 ft | 433 kts | 232° |
| 2026-05-08 06:46 | 56.82377 | 8.56740 | 38223 ft | 433 kts | 232° |
| 2026-05-08 06:46 | 56.78756 | 8.47946 | 38222 ft | 433 kts | 232° |
| 2026-05-08 06:47 | 56.75153 | 8.39223 | 38225 ft | 433 kts | 232° |
| 2026-05-08 06:47 | 56.71522 | 8.30466 | 38229 ft | 433 kts | 231° |
| 2026-05-08 06:48 | 56.67884 | 8.21723 | 38227 ft | 433 kts | 231° |
| 2026-05-08 06:48 | 56.64238 | 8.12993 | 38220 ft | 433 kts | 231° |
| 2026-05-08 06:49 | 56.60587 | 8.04281 | 38230 ft | 433 kts | 231° |
| 2026-05-08 06:49 | 56.56929 | 7.95585 | 38223 ft | 433 kts | 231° |
| 2026-05-08 06:50 | 56.53271 | 7.86920 | 38221 ft | 433 kts | 231° |
| 2026-05-08 06:50 | 56.49628 | 7.78320 | 38221 ft | 433 kts | 231° |
| 2026-05-08 06:51 | 56.45956 | 7.69685 | 38226 ft | 433 kts | 231° |
| 2026-05-08 06:51 | 56.42281 | 7.61070 | 38216 ft | 432 kts | 231° |
| 2026-05-08 06:52 | 56.38599 | 7.52474 | 38217 ft | 432 kts | 231° |
| 2026-05-08 06:52 | 56.34917 | 7.43903 | 38216 ft | 432 kts | 231° |
| 2026-05-08 06:53 | 56.31226 | 7.35345 | 38213 ft | 432 kts | 231° |
| 2026-05-08 06:53 | 56.27527 | 7.26798 | 38214 ft | 432 kts | 231° |
| 2026-05-08 06:54 | 56.23826 | 7.18276 | 38210 ft | 432 kts | 231° |
| 2026-05-08 06:54 | 56.20114 | 7.09759 | 38212 ft | 432 kts | 231° |
| 2026-05-08 06:55 | 56.16397 | 7.01260 | 38205 ft | 433 kts | 231° |
| 2026-05-08 06:55 | 56.12679 | 6.92788 | 38210 ft | 433 kts | 231° |
| 2026-05-08 06:56 | 56.08974 | 6.84376 | 38208 ft | 432 kts | 231° |
| 2026-05-08 06:56 | 56.05239 | 6.75927 | 38204 ft | 432 kts | 230° |
| 2026-05-08 06:57 | 56.01498 | 6.67491 | 38206 ft | 432 kts | 230° |
| 2026-05-08 06:57 | 55.97752 | 6.59073 | 38206 ft | 432 kts | 230° |
| 2026-05-08 06:58 | 55.94002 | 6.50677 | 38209 ft | 433 kts | 230° |
| 2026-05-08 06:58 | 55.90245 | 6.42292 | 38199 ft | 432 kts | 230° |
| 2026-05-08 06:59 | 55.86484 | 6.33930 | 38203 ft | 432 kts | 230° |
| 2026-05-08 06:59 | 55.82717 | 6.25582 | 38197 ft | 432 kts | 230° |
| 2026-05-08 07:00 | 55.78946 | 6.17252 | 38198 ft | 432 kts | 230° |
| 2026-05-08 07:00 | 55.75170 | 6.08943 | 38196 ft | 432 kts | 230° |
| 2026-05-08 07:01 | 55.71389 | 6.00648 | 38192 ft | 432 kts | 230° |
| 2026-05-08 07:01 | 55.67602 | 5.92371 | 38191 ft | 432 kts | 230° |
| 2026-05-08 07:02 | 55.63831 | 5.84154 | 38191 ft | 432 kts | 230° |
| 2026-05-08 07:02 | 55.60034 | 5.75910 | 38191 ft | 432 kts | 230° |
| 2026-05-08 07:03 | 55.56229 | 5.67677 | 38189 ft | 432 kts | 230° |
| 2026-05-08 07:03 | 55.52428 | 5.59480 | 38194 ft | 432 kts | 230° |
| 2026-05-08 07:04 | 55.48614 | 5.51281 | 38191 ft | 432 kts | 230° |
| 2026-05-08 07:04 | 55.44797 | 5.43106 | 38187 ft | 432 kts | 230° |
| 2026-05-08 07:05 | 55.40975 | 5.34943 | 38188 ft | 432 kts | 230° |
| 2026-05-08 07:05 | 55.37153 | 5.26796 | 38182 ft | 432 kts | 230° |
| 2026-05-08 07:06 | 55.33324 | 5.18656 | 38182 ft | 432 kts | 230° |
| 2026-05-08 07:06 | 55.29520 | 5.10596 | 38182 ft | 432 kts | 230° |
| 2026-05-08 07:07 | 55.25400 | 5.02947 | 38175 ft | 431 kts | 221° |
| 2026-05-08 07:07 | 55.20654 | 4.96541 | 38174 ft | 431 kts | 212° |
| 2026-05-08 07:08 | 55.15395 | 4.91467 | 38168 ft | 431 kts | 208° |
| 2026-05-08 07:08 | 55.10106 | 4.86481 | 38169 ft | 432 kts | 209° |
| 2026-05-08 07:09 | 55.04818 | 4.81507 | 38168 ft | 432 kts | 209° |
| 2026-05-08 07:09 | 54.99523 | 4.76553 | 38166 ft | 432 kts | 209° |
| 2026-05-08 07:10 | 54.94217 | 4.71606 | 38166 ft | 432 kts | 209° |
| 2026-05-08 07:10 | 54.88946 | 4.66706 | 38166 ft | 433 kts | 209° |
| 2026-05-08 07:11 | 54.83633 | 4.61782 | 38163 ft | 433 kts | 209° |
| 2026-05-08 07:11 | 54.78312 | 4.56865 | 38167 ft | 433 kts | 209° |
| 2026-05-08 07:12 | 54.72990 | 4.51962 | 38167 ft | 433 kts | 209° |
| 2026-05-08 07:12 | 54.67666 | 4.47071 | 38164 ft | 434 kts | 209° |
| 2026-05-08 07:13 | 54.62448 | 4.42293 | 38164 ft | 434 kts | 209° |
| 2026-05-08 07:13 | 54.57109 | 4.37418 | 38162 ft | 434 kts | 209° |
| 2026-05-08 07:14 | 54.51773 | 4.32561 | 38164 ft | 434 kts | 209° |
| 2026-05-08 07:14 | 54.46433 | 4.27715 | 38161 ft | 434 kts | 209° |
| 2026-05-08 07:15 | 54.41091 | 4.22880 | 38164 ft | 434 kts | 209° |
| 2026-05-08 07:15 | 54.35745 | 4.18057 | 38164 ft | 434 kts | 209° |
| 2026-05-08 07:16 | 54.30436 | 4.13281 | 38163 ft | 433 kts | 209° |
| 2026-05-08 07:16 | 54.25098 | 4.08492 | 38161 ft | 433 kts | 209° |
| 2026-05-08 07:17 | 54.19718 | 4.03681 | 38157 ft | 433 kts | 209° |
| 2026-05-08 07:17 | 54.14404 | 3.98942 | 38158 ft | 433 kts | 209° |
| 2026-05-08 07:18 | 54.09058 | 3.94189 | 38154 ft | 433 kts | 209° |
| 2026-05-08 07:18 | 54.03713 | 3.89450 | 38154 ft | 433 kts | 209° |
| 2026-05-08 07:19 | 53.98364 | 3.84721 | 38151 ft | 433 kts | 209° |
| 2026-05-08 07:19 | 53.93010 | 3.80002 | 38154 ft | 433 kts | 208° |
| 2026-05-08 07:20 | 53.87657 | 3.75298 | 38152 ft | 433 kts | 208° |
| 2026-05-08 07:20 | 53.82298 | 3.70602 | 38152 ft | 433 kts | 208° |
| 2026-05-08 07:21 | 53.76936 | 3.65917 | 38157 ft | 433 kts | 208° |
| 2026-05-08 07:21 | 53.71570 | 3.61243 | 38148 ft | 433 kts | 208° |
| 2026-05-08 07:22 | 53.66211 | 3.56587 | 38151 ft | 434 kts | 208° |
| 2026-05-08 07:22 | 53.60843 | 3.51938 | 38153 ft | 434 kts | 208° |
| 2026-05-08 07:23 | 53.55474 | 3.47301 | 38146 ft | 434 kts | 208° |
| 2026-05-08 07:23 | 53.50130 | 3.42699 | 38145 ft | 434 kts | 208° |
| 2026-05-08 07:24 | 53.44754 | 3.38082 | 38147 ft | 434 kts | 208° |
| 2026-05-08 07:24 | 53.40290 | 3.34258 | 38141 ft | 434 kts | 208° |
| 2026-05-08 07:25 | 53.34904 | 3.29657 | 38116 ft | 434 kts | 208° |
| 2026-05-08 07:26 | 53.26832 | 3.22788 | 38109 ft | 434 kts | 208° |
| 2026-05-08 07:26 | 53.21444 | 3.18219 | 38112 ft | 434 kts | 208° |
| 2026-05-08 07:27 | 53.16057 | 3.13662 | 38113 ft | 434 kts | 208° |
| 2026-05-08 07:27 | 53.10664 | 3.09114 | 38123 ft | 434 kts | 208° |
| 2026-05-08 07:28 | 53.05302 | 3.04605 | 38130 ft | 434 kts | 208° |
| 2026-05-08 07:28 | 52.99909 | 3.00083 | 38133 ft | 434 kts | 208° |
| 2026-05-08 07:29 | 52.94520 | 2.95577 | 38135 ft | 434 kts | 208° |
| 2026-05-08 07:29 | 52.89121 | 2.91074 | 38139 ft | 434 kts | 208° |
| 2026-05-08 07:30 | 52.83725 | 2.86588 | 38139 ft | 434 kts | 208° |
| 2026-05-08 07:30 | 52.78325 | 2.82110 | 38121 ft | 434 kts | 208° |
| 2026-05-08 07:30 | 52.75633 | 2.79883 | 38013 ft | 431 kts | 208° |
| 2026-05-08 07:31 | 52.72954 | 2.77669 | 37601 ft | 428 kts | 208° |
| 2026-05-08 07:31 | 52.70292 | 2.75473 | 36991 ft | 427 kts | 208° |
| 2026-05-08 07:31 | 52.67634 | 2.73281 | 36340 ft | 426 kts | 208° |
| 2026-05-08 07:31 | 52.64986 | 2.71101 | 35694 ft | 425 kts | 208° |
| 2026-05-08 07:32 | 52.62341 | 2.68927 | 35073 ft | 424 kts | 208° |
| 2026-05-08 07:32 | 52.59709 | 2.66766 | 34437 ft | 423 kts | 208° |
| 2026-05-08 07:32 | 52.57069 | 2.64601 | 33748 ft | 422 kts | 207° |
| 2026-05-08 07:32 | 52.54432 | 2.62442 | 32897 ft | 424 kts | 207° |
| 2026-05-08 07:33 | 52.51781 | 2.60275 | 32012 ft | 426 kts | 207° |
| 2026-05-08 07:33 | 52.49120 | 2.58103 | 31128 ft | 428 kts | 207° |
| 2026-05-08 07:33 | 52.46443 | 2.55921 | 30293 ft | 430 kts | 207° |
| 2026-05-08 07:33 | 52.43773 | 2.53749 | 29563 ft | 427 kts | 207° |
| 2026-05-08 07:34 | 52.41127 | 2.51598 | 28896 ft | 422 kts | 207° |
| 2026-05-08 07:34 | 52.38553 | 2.49508 | 28236 ft | 418 kts | 207° |
| 2026-05-08 07:34 | 52.35957 | 2.47404 | 27574 ft | 414 kts | 207° |
| 2026-05-08 07:34 | 52.33388 | 2.45323 | 26927 ft | 410 kts | 207° |
| 2026-05-08 07:35 | 52.30843 | 2.43265 | 26294 ft | 406 kts | 207° |
| 2026-05-08 07:35 | 52.28325 | 2.41231 | 25684 ft | 403 kts | 207° |
| 2026-05-08 07:35 | 52.25815 | 2.39206 | 25076 ft | 400 kts | 207° |
| 2026-05-08 07:35 | 52.23334 | 2.37208 | 24489 ft | 396 kts | 207° |
| 2026-05-08 07:36 | 52.20869 | 2.35225 | 23902 ft | 393 kts | 207° |
| 2026-05-08 07:36 | 52.18420 | 2.33256 | 23299 ft | 390 kts | 207° |
| 2026-05-08 07:36 | 52.15999 | 2.31313 | 22656 ft | 386 kts | 207° |
| 2026-05-08 07:36 | 52.13605 | 2.29391 | 22022 ft | 382 kts | 208° |
| 2026-05-08 07:37 | 52.11337 | 2.27174 | 21395 ft | 378 kts | 216° |
| 2026-05-08 07:37 | 52.09308 | 2.24486 | 20806 ft | 374 kts | 224° |
| 2026-05-08 07:37 | 52.07536 | 2.21409 | 20211 ft | 371 kts | 229° |
| 2026-05-08 07:37 | 52.05855 | 2.18248 | 19631 ft | 368 kts | 229° |
| 2026-05-08 07:38 | 52.04206 | 2.15170 | 19076 ft | 365 kts | 229° |
| 2026-05-08 07:38 | 52.02532 | 2.12061 | 18511 ft | 362 kts | 229° |
| 2026-05-08 07:38 | 52.00873 | 2.08990 | 17895 ft | 360 kts | 229° |
| 2026-05-08 07:38 | 51.99233 | 2.05961 | 17276 ft | 357 kts | 229° |
| 2026-05-08 07:39 | 51.97598 | 2.02944 | 16677 ft | 354 kts | 229° |
| 2026-05-08 07:39 | 51.95974 | 1.99953 | 16089 ft | 352 kts | 229° |
| 2026-05-08 07:39 | 51.94361 | 1.96984 | 15513 ft | 350 kts | 229° |
| 2026-05-08 07:39 | 51.92756 | 1.94033 | 14947 ft | 347 kts | 229° |
| 2026-05-08 07:40 | 51.91163 | 1.91109 | 14400 ft | 345 kts | 229° |
| 2026-05-08 07:40 | 51.89578 | 1.88201 | 13837 ft | 343 kts | 229° |
| 2026-05-08 07:40 | 51.88000 | 1.85310 | 13271 ft | 341 kts | 229° |
| 2026-05-08 07:40 | 51.86436 | 1.82451 | 12708 ft | 338 kts | 229° |
| 2026-05-08 07:41 | 51.84906 | 1.79657 | 12181 ft | 335 kts | 229° |
| 2026-05-08 07:41 | 51.83368 | 1.76854 | 11643 ft | 332 kts | 229° |
| 2026-05-08 07:41 | 51.81841 | 1.74073 | 11118 ft | 329 kts | 230° |
| 2026-05-08 07:41 | 51.80323 | 1.71311 | 10595 ft | 327 kts | 230° |
| 2026-05-08 07:42 | 51.78833 | 1.68602 | 10343 ft | 317 kts | 230° |
| 2026-05-08 07:42 | 51.77400 | 1.66003 | 10217 ft | 302 kts | 230° |
| 2026-05-08 07:42 | 51.76030 | 1.63514 | 10095 ft | 289 kts | 232° |
| 2026-05-08 07:42 | 51.74984 | 1.60863 | 9879 ft | 276 kts | 249° |
| 2026-05-08 07:43 | 51.74509 | 1.57900 | 9418 ft | 272 kts | 265° |
| 2026-05-08 07:43 | 51.74338 | 1.54858 | 8952 ft | 272 kts | 265° |
| 2026-05-08 07:43 | 51.74159 | 1.51810 | 8499 ft | 272 kts | 265° |
| 2026-05-08 07:43 | 51.73971 | 1.48770 | 8065 ft | 272 kts | 264° |
| 2026-05-08 07:44 | 51.73782 | 1.45791 | 7658 ft | 271 kts | 264° |
| 2026-05-08 07:44 | 51.73588 | 1.42764 | 7212 ft | 272 kts | 263° |
| 2026-05-08 07:44 | 51.73391 | 1.39719 | 6755 ft | 273 kts | 263° |
| 2026-05-08 07:44 | 51.73193 | 1.36666 | 6288 ft | 275 kts | 263° |
| 2026-05-08 07:45 | 51.72992 | 1.33605 | 5956 ft | 271 kts | 263° |
| 2026-05-08 07:45 | 51.72793 | 1.30590 | 5941 ft | 273 kts | 263° |
| 2026-05-08 07:45 | 51.72591 | 1.27538 | 6057 ft | 275 kts | 263° |
| 2026-05-08 07:45 | 51.72390 | 1.24515 | 5881 ft | 275 kts | 263° |
| 2026-05-08 07:46 | 51.72187 | 1.21463 | 5664 ft | 272 kts | 263° |
| 2026-05-08 07:46 | 51.71985 | 1.18431 | 5449 ft | 271 kts | 263° |
| 2026-05-08 07:46 | 51.71783 | 1.15409 | 5240 ft | 271 kts | 263° |
| 2026-05-08 07:46 | 51.71581 | 1.12400 | 5028 ft | 270 kts | 262° |
| 2026-05-08 07:47 | 51.71377 | 1.09390 | 4815 ft | 269 kts | 262° |
| 2026-05-08 07:47 | 51.71174 | 1.06397 | 4602 ft | 268 kts | 262° |
| 2026-05-08 07:47 | 51.70969 | 1.03409 | 4387 ft | 267 kts | 262° |
| 2026-05-08 07:47 | 51.70766 | 1.00438 | 4181 ft | 266 kts | 262° |
| 2026-05-08 07:48 | 51.70562 | 0.97484 | 3972 ft | 264 kts | 262° |
| 2026-05-08 07:48 | 51.70359 | 0.94538 | 3766 ft | 264 kts | 262° |
| 2026-05-08 07:48 | 51.70156 | 0.91601 | 3608 ft | 263 kts | 262° |
| 2026-05-08 07:48 | 51.69954 | 0.88671 | 3433 ft | 262 kts | 262° |
| 2026-05-08 07:49 | 51.69748 | 0.85754 | 3262 ft | 262 kts | 262° |
| 2026-05-08 07:49 | 51.69543 | 0.82848 | 3089 ft | 260 kts | 262° |
| 2026-05-08 07:49 | 51.69340 | 0.79938 | 2919 ft | 261 kts | 262° |
| 2026-05-08 07:49 | 51.69137 | 0.77033 | 2753 ft | 260 kts | 262° |
| 2026-05-08 07:50 | 51.68933 | 0.74139 | 2577 ft | 260 kts | 262° |
| 2026-05-08 07:50 | 51.68730 | 0.71293 | 2500 ft | 259 kts | 262° |
| 2026-05-08 07:50 | 51.68520 | 0.68369 | 2497 ft | 260 kts | 262° |
| 2026-05-08 07:50 | 51.68312 | 0.65472 | 2499 ft | 260 kts | 262° |
| 2026-05-08 07:51 | 51.68107 | 0.62611 | 2496 ft | 260 kts | 262° |
| 2026-05-08 07:51 | 51.67896 | 0.59675 | 2498 ft | 261 kts | 262° |
| 2026-05-08 07:51 | 51.67689 | 0.56812 | 2501 ft | 260 kts | 262° |
| 2026-05-08 07:51 | 51.67481 | 0.53935 | 2497 ft | 260 kts | 262° |
| 2026-05-08 07:52 | 51.67270 | 0.51026 | 2499 ft | 260 kts | 262° |
| 2026-05-08 07:52 | 51.67061 | 0.48135 | 2496 ft | 260 kts | 262° |
| 2026-05-08 07:52 | 51.66847 | 0.45231 | 2498 ft | 261 kts | 262° |
| 2026-05-08 07:52 | 51.66633 | 0.42340 | 2496 ft | 259 kts | 261° |
| 2026-05-08 07:53 | 51.66421 | 0.39460 | 2498 ft | 260 kts | 261° |
| 2026-05-08 07:53 | 51.66207 | 0.36563 | 2495 ft | 259 kts | 261° |
| 2026-05-08 07:53 | 51.65994 | 0.33678 | 2491 ft | 260 kts | 261° |
| 2026-05-08 07:53 | 51.65778 | 0.30783 | 2492 ft | 260 kts | 261° |
| 2026-05-08 07:54 | 51.65563 | 0.27907 | 2497 ft | 259 kts | 261° |
| 2026-05-08 07:54 | 51.65346 | 0.25020 | 2494 ft | 260 kts | 261° |
| 2026-05-08 07:54 | 51.65129 | 0.22135 | 2495 ft | 259 kts | 261° |
| 2026-05-08 07:54 | 51.64914 | 0.19283 | 2493 ft | 259 kts | 261° |
| 2026-05-08 07:55 | 51.64693 | 0.16364 | 2499 ft | 260 kts | 261° |
| 2026-05-08 07:55 | 51.64484 | 0.13522 | 2491 ft | 259 kts | 262° |
| 2026-05-08 07:55 | 51.64318 | 0.10619 | 2497 ft | 260 kts | 263° |
| 2026-05-08 07:55 | 51.64171 | 0.07721 | 2498 ft | 260 kts | 263° |
| 2026-05-08 07:56 | 51.64025 | 0.04848 | 2495 ft | 259 kts | 263° |
| 2026-05-08 07:56 | 51.63873 | 0.01957 | 2500 ft | 259 kts | 263° |
| 2026-05-08 07:56 | 51.63715 | -0.00937 | 2500 ft | 260 kts | 263° |
| 2026-05-08 07:56 | 51.63555 | -0.03821 | 2497 ft | 259 kts | 263° |
| 2026-05-08 07:57 | 51.63392 | -0.06714 | 2496 ft | 258 kts | 263° |
| 2026-05-08 07:57 | 51.63229 | -0.09602 | 2497 ft | 260 kts | 263° |
| 2026-05-08 07:57 | 51.63066 | -0.12486 | 2498 ft | 259 kts | 263° |
| 2026-05-08 07:57 | 51.62901 | -0.15378 | 2497 ft | 260 kts | 263° |
| 2026-05-08 07:58 | 51.62734 | -0.18277 | 2500 ft | 259 kts | 263° |
| 2026-05-08 07:58 | 51.62567 | -0.21177 | 2502 ft | 261 kts | 262° |
| 2026-05-08 07:58 | 51.62400 | -0.24070 | 2498 ft | 259 kts | 262° |
| 2026-05-08 07:58 | 51.62234 | -0.26969 | 2499 ft | 260 kts | 262° |
| 2026-05-08 07:59 | 51.62066 | -0.29864 | 2502 ft | 260 kts | 262° |
| 2026-05-08 07:59 | 51.61896 | -0.32759 | 2476 ft | 260 kts | 262° |
| 2026-05-08 07:59 | 51.61724 | -0.35656 | 2472 ft | 260 kts | 262° |
| 2026-05-08 07:59 | 51.61553 | -0.38557 | 2475 ft | 261 kts | 262° |
| 2026-05-08 08:00 | 51.61382 | -0.41452 | 2473 ft | 259 kts | 263° |
| 2026-05-08 08:00 | 51.61212 | -0.44309 | 2474 ft | 260 kts | 262° |
| 2026-05-08 08:00 | 51.61039 | -0.47207 | 2472 ft | 260 kts | 262° |
| 2026-05-08 08:00 | 51.60866 | -0.50096 | 2472 ft | 260 kts | 262° |
| 2026-05-08 08:01 | 51.60692 | -0.52986 | 2471 ft | 260 kts | 262° |
| 2026-05-08 08:01 | 51.60518 | -0.55887 | 2475 ft | 260 kts | 262° |
| 2026-05-08 08:01 | 51.60342 | -0.58781 | 2473 ft | 261 kts | 262° |
| 2026-05-08 08:01 | 51.60166 | -0.61680 | 2473 ft | 260 kts | 262° |
| 2026-05-08 08:02 | 51.59993 | -0.64531 | 2469 ft | 251 kts | 262° |
| 2026-05-08 08:02 | 51.59829 | -0.67239 | 2466 ft | 234 kts | 262° |
| 2026-05-08 08:02 | 51.59676 | -0.69764 | 2474 ft | 218 kts | 261° |
| 2026-05-08 08:02 | 51.59535 | -0.72066 | 2469 ft | 196 kts | 261° |
| 2026-05-08 08:03 | 51.59410 | -0.74110 | 2465 ft | 174 kts | 261° |
| 2026-05-08 08:03 | 51.59298 | -0.75915 | 2461 ft | 149 kts | 257° |
| 2026-05-08 08:03 | 51.58892 | -0.77281 | 2478 ft | 132 kts | 226° |
| 2026-05-08 08:03 | 51.58265 | -0.78327 | 2473 ft | 130 kts | 215° |
| 2026-05-08 08:04 | 51.57444 | -0.79114 | 2469 ft | 139 kts | 198° |
| 2026-05-08 08:04 | 51.56513 | -0.79501 | 2475 ft | 139 kts | 185° |
| 2026-05-08 08:04 | 51.55553 | -0.79614 | 2464 ft | 137 kts | 179° |
| 2026-05-08 08:04 | 51.54601 | -0.79595 | 2470 ft | 138 kts | 176° |
| 2026-05-08 08:05 | 51.53635 | -0.79525 | 2467 ft | 138 kts | 175° |
| 2026-05-08 08:05 | 51.52672 | -0.79449 | 2467 ft | 137 kts | 175° |
| 2026-05-08 08:05 | 51.51715 | -0.79377 | 2471 ft | 139 kts | 175° |
| 2026-05-08 08:05 | 51.50757 | -0.79278 | 2478 ft | 137 kts | 166° |
| 2026-05-08 08:06 | 51.49932 | -0.78539 | 2484 ft | 137 kts | 141° |
| 2026-05-08 08:06 | 51.49236 | -0.77503 | 2483 ft | 137 kts | 136° |
| 2026-05-08 08:06 | 51.48583 | -0.76387 | 2487 ft | 138 kts | 130° |
| 2026-05-08 08:06 | 51.48080 | -0.75089 | 2491 ft | 140 kts | 116° |
| 2026-05-08 08:07 | 51.47795 | -0.73590 | 2492 ft | 141 kts | 103° |
| 2026-05-08 08:07 | 51.47693 | -0.72021 | 2493 ft | 142 kts | 96° |
| 2026-05-08 08:07 | 51.47674 | -0.70435 | 2493 ft | 143 kts | 93° |
| 2026-05-08 08:07 | 51.47676 | -0.68847 | 2497 ft | 142 kts | 93° |
| 2026-05-08 08:08 | 51.47681 | -0.67254 | 2425 ft | 142 kts | 92° |
| 2026-05-08 08:08 | 51.47688 | -0.65754 | 2247 ft | 128 kts | 94° |
| 2026-05-08 08:08 | 51.47691 | -0.64336 | 2081 ft | 127 kts | 94° |
| 2026-05-08 08:08 | 51.47697 | -0.62931 | 1915 ft | 125 kts | 94° |
| 2026-05-08 08:09 | 51.47702 | -0.61537 | 1750 ft | 125 kts | 94° |
| 2026-05-08 08:09 | 51.47706 | -0.60135 | 1578 ft | 126 kts | 93° |
| 2026-05-08 08:09 | 51.47712 | -0.58743 | 1403 ft | 124 kts | 93° |
| 2026-05-08 08:09 | 51.47717 | -0.57373 | 1232 ft | 122 kts | 92° |
| 2026-05-08 08:10 | 51.47721 | -0.55997 | 1055 ft | 123 kts | 92° |
| 2026-05-08 08:10 | 51.47726 | -0.54633 | 890 ft | 122 kts | 90° |
| 2026-05-08 08:10 | 51.47731 | -0.53269 | 716 ft | 120 kts | 90° |
| 2026-05-08 08:10 | 51.47736 | -0.51952 | 553 ft | 121 kts | 89° |
| 2026-05-08 08:11 | 51.47741 | -0.50585 | 388 ft | 121 kts | 90° |
| 2026-05-08 08:11 | 51.47746 | -0.49272 | 229 ft | 120 kts | 89° |
| 2026-05-08 08:11 | 51.47752 | -0.47944 | 96 ft | 119 kts | 89° |
| 2026-05-08 08:11 | 51.47756 | -0.46751 | 88 ft | 84 kts | 90° |
| 2026-05-08 08:12 | 51.47760 | -0.45843 | 82 ft | 75 kts | 90° |
| 2026-05-08 08:12 | 51.47761 | -0.45224 | 84 ft | 38 kts | 90° |
| 2026-05-08 08:12 | 51.47725 | -0.44876 | 88 ft | 29 kts | 135° |
| 2026-05-08 08:12 | 51.47655 | -0.44800 | 87 ft | 0 kts | 153° |
| 2026-05-08 08:13 | 51.47653 | -0.44798 | 87 ft | 3 kts | 153° |
| 2026-05-08 08:13 | 51.47592 | -0.44828 | 86 ft | 12 kts | 239° |
| 2026-05-08 08:13 | 51.47597 | -0.44961 | 83 ft | 17 kts | 270° |
| 2026-05-08 08:14 | 51.47597 | -0.45112 | 82 ft | 24 kts | 270° |
| 2026-05-08 08:14 | 51.47597 | -0.45380 | 82 ft | 18 kts | 270° |
| 2026-05-08 08:14 | 51.47595 | -0.45611 | 83 ft | 23 kts | 270° |
| 2026-05-08 08:14 | 51.47595 | -0.45871 | 86 ft | 23 kts | 270° |
| 2026-05-08 08:15 | 51.47596 | -0.46089 | 84 ft | 20 kts | 269° |
| 2026-05-08 08:15 | 51.47594 | -0.46330 | 86 ft | 23 kts | 269° |
| 2026-05-08 08:15 | 51.47593 | -0.46601 | 82 ft | 25 kts | 269° |
| 2026-05-08 08:15 | 51.47585 | -0.46864 | 83 ft | 24 kts | 262° |
| 2026-05-08 08:16 | 51.47583 | -0.47132 | 82 ft | 23 kts | 270° |
| 2026-05-08 08:16 | 51.47582 | -0.47398 | 86 ft | 25 kts | 269° |
| 2026-05-08 08:16 | 51.47580 | -0.47671 | 86 ft | 22 kts | 269° |
| 2026-05-08 08:16 | 51.47578 | -0.47919 | 83 ft | 23 kts | 270° |
| 2026-05-08 08:17 | 51.47577 | -0.48169 | 84 ft | 22 kts | 269° |
| 2026-05-08 08:17 | 51.47578 | -0.48392 | 84 ft | 18 kts | 270° |
| 2026-05-08 08:17 | 51.47516 | -0.48479 | 82 ft | 13 kts | 187° |
| 2026-05-08 08:17 | 51.47487 | -0.48589 | 83 ft | 13 kts | 270° |
| 2026-05-08 08:18 | 51.47486 | -0.48733 | 83 ft | 13 kts | 269° |
| 2026-05-08 08:18 | 51.47455 | -0.48761 | 84 ft | 7 kts | 180° |
| 2026-05-08 08:18 | 51.47407 | -0.48762 | 83 ft | 6 kts | 180° |
| 2026-05-08 08:18 | 51.47399 | -0.48762 | 83 ft | 0 kts | 180° |